createdAt,value
2019-05-25T00:01:24.178Z,42.14
2019-05-25T00:02:24.173Z,42.43
2019-05-25T00:04:17.156Z,39.73
2019-05-25T00:05:17.216Z,38.30
2019-05-25T00:07:10.229Z,36.58
2019-05-25T00:08:10.269Z,36.19
2019-05-25T00:10:03.257Z,36.19
2019-05-25T00:11:03.325Z,35.43
2019-05-25T00:12:56.319Z,35.24
2019-05-25T00:13:56.363Z,34.28
2019-05-25T00:15:49.339Z,34.48
2019-05-25T00:16:49.405Z,32.76
2019-05-25T00:18:42.410Z,33.71
2019-05-25T00:19:42.449Z,32.47
2019-05-25T00:21:35.462Z,34.67
2019-05-25T00:22:35.496Z,35.53
2019-05-25T00:24:28.490Z,32.66
2019-05-25T00:25:28.552Z,31.90
2019-05-25T00:27:21.563Z,29.59
2019-05-25T00:28:21.613Z,29.69
2019-05-25T00:30:14.599Z,28.92
2019-05-25T00:31:14.655Z,28.54
2019-05-25T00:33:07.679Z,29.11
2019-05-25T00:34:07.715Z,29.88
2019-05-25T00:36:00.726Z,30.56
2019-05-25T00:37:00.769Z,29.78
2019-05-25T00:38:53.749Z,29.69
2019-05-25T00:39:53.808Z,29.40
2019-05-25T00:41:46.823Z,29.97
2019-05-25T00:42:46.852Z,30.26
2019-05-25T00:44:40.350Z,29.49
2019-05-25T00:45:40.407Z,29.30
2019-05-25T00:47:33.414Z,30.55
2019-05-25T00:48:33.482Z,31.50
2019-05-25T00:50:26.436Z,30.55
2019-05-25T00:51:26.499Z,29.49
2019-05-25T00:53:19.499Z,29.21
2019-05-25T00:54:27.437Z,29.11
2019-05-25T00:56:12.523Z,30.83
2019-05-25T00:57:12.589Z,31.02
2019-05-25T00:59:05.590Z,30.26
2019-05-25T01:00:05.638Z,30.83
2019-05-25T01:01:58.622Z,30.74
2019-05-25T01:02:58.694Z,31.99
2019-05-25T01:04:51.685Z,31.31
2019-05-25T01:05:51.727Z,30.16
2019-05-25T01:07:44.748Z,31.40
2019-05-25T01:08:44.793Z,30.35
2019-05-25T01:10:37.796Z,31.40
2019-05-25T01:11:37.839Z,31.79
2019-05-25T01:13:30.850Z,31.12
2019-05-25T01:14:30.908Z,29.97
2019-05-25T01:16:23.884Z,27.78
2019-05-25T01:17:23.925Z,28.16
2019-05-25T01:19:16.927Z,28.35
2019-05-25T01:20:16.978Z,27.68
2019-05-25T01:22:09.958Z,27.49
2019-05-25T01:23:10.018Z,28.25
2019-05-25T01:25:03.018Z,28.73
2019-05-25T01:26:03.060Z,28.64
2019-05-25T01:27:56.064Z,28.73
2019-05-25T01:28:56.104Z,28.06
2019-05-25T01:30:49.088Z,25.29
2019-05-25T01:31:49.151Z,22.99
2019-05-25T01:33:42.150Z,20.99
2019-05-25T01:34:42.193Z,19.56
2019-05-25T01:36:35.209Z,19.46
2019-05-25T01:37:35.249Z,20.79
2019-05-25T01:39:28.233Z,22.24
2019-05-25T01:40:28.306Z,22.24
2019-05-25T01:42:21.298Z,21.77
2019-05-25T01:43:21.335Z,21.95
2019-05-25T01:45:14.830Z,22.43
2019-05-25T01:46:14.890Z,22.62
2019-05-25T01:48:07.894Z,22.53
2019-05-25T01:49:07.931Z,22.81
2019-05-25T01:51:00.934Z,22.91
2019-05-25T01:52:00.976Z,22.53
2019-05-25T01:53:53.983Z,20.89
2019-05-25T01:54:59.889Z,21.28
2019-05-25T01:56:47.015Z,20.23
2019-05-25T01:57:47.075Z,19.27
2019-05-25T01:59:40.079Z,18.13
2019-05-25T02:00:40.118Z,18.03
2019-05-25T02:02:33.118Z,18.03
2019-05-25T02:03:33.169Z,17.65
2019-05-25T02:05:26.170Z,16.89
2019-05-25T02:06:26.210Z,16.80
2019-05-25T02:08:19.198Z,16.51
2019-05-25T02:09:19.254Z,18.13
2019-05-25T02:11:12.257Z,18.99
2019-05-25T02:12:12.297Z,19.09
2019-05-25T02:14:05.279Z,18.42
2019-05-25T02:15:05.359Z,18.71
2019-05-25T02:16:58.347Z,20.04
2019-05-25T02:17:58.389Z,19.95
2019-05-25T02:19:51.477Z,18.99
2019-05-25T02:20:51.432Z,18.71
2019-05-25T02:22:44.426Z,21.57
2019-05-25T02:23:44.494Z,23.38
2019-05-25T02:25:37.494Z,24.82
2019-05-25T02:26:37.592Z,25.49
2019-05-25T02:28:30.525Z,24.24
2019-05-25T02:29:30.582Z,24.05
2019-05-25T02:31:23.592Z,22.91
2019-05-25T02:32:23.632Z,22.05
2019-05-25T02:34:16.618Z,19.56
2019-05-25T02:35:16.681Z,18.22
2019-05-25T02:37:09.681Z,16.60
2019-05-25T02:38:09.722Z,16.50
2019-05-25T02:40:02.765Z,16.60
2019-05-25T02:41:02.806Z,16.60
2019-05-25T02:42:55.786Z,15.93
2019-05-25T02:43:55.844Z,15.84
2019-05-25T02:45:48.851Z,16.60
2019-05-25T02:46:48.890Z,17.17
2019-05-25T02:48:41.879Z,16.98
2019-05-25T02:49:41.940Z,16.79
2019-05-25T02:51:34.967Z,17.74
2019-05-25T02:52:34.983Z,18.22
2019-05-25T02:54:27.982Z,19.65
2019-05-25T02:55:34.359Z,20.62
2019-05-25T02:57:21.014Z,20.81
2019-05-25T02:58:21.072Z,20.33
2019-05-25T03:00:14.069Z,21.08
2019-05-25T03:01:14.150Z,21.28
2019-05-25T03:03:07.106Z,21.77
2019-05-25T03:04:07.165Z,21.86
2019-05-25T03:06:00.209Z,22.81
2019-05-25T03:07:00.198Z,23.77
2019-05-25T03:08:53.201Z,22.33
2019-05-25T03:09:53.242Z,22.62
2019-05-25T03:11:46.226Z,23.48
2019-05-25T03:12:46.287Z,22.81
2019-05-25T03:14:39.290Z,22.43
2019-05-25T03:15:39.330Z,22.24
2019-05-25T03:17:32.338Z,22.62
2019-05-25T03:18:32.379Z,22.14
2019-05-25T03:20:25.359Z,22.33
2019-05-25T03:21:25.422Z,22.53
2019-05-25T03:23:18.425Z,22.53
2019-05-25T03:24:18.466Z,20.90
2019-05-25T03:26:11.449Z,22.33
2019-05-25T03:27:11.513Z,22.43
2019-05-25T03:29:04.511Z,21.28
2019-05-25T03:30:04.552Z,21.19
2019-05-25T03:31:57.535Z,20.72
2019-05-25T03:32:57.594Z,20.62
2019-05-25T03:34:50.598Z,20.14
2019-05-25T03:35:50.643Z,20.72
2019-05-25T03:37:43.645Z,20.14
2019-05-25T03:38:43.689Z,19.76
2019-05-25T03:40:36.672Z,19.66
2019-05-25T03:41:36.732Z,20.90
2019-05-25T03:43:29.761Z,21.38
2019-05-25T03:44:29.813Z,21.28
2019-05-25T03:46:22.836Z,20.90
2019-05-25T03:47:22.973Z,20.33
2019-05-25T03:49:15.862Z,19.47
2019-05-25T03:50:15.900Z,18.80
2019-05-25T03:52:08.903Z,19.66
2019-05-25T03:53:08.942Z,19.76
2019-05-25T03:55:01.928Z,20.33
2019-05-25T03:56:05.682Z,20.52
2019-05-25T03:57:55.000Z,20.52
2019-05-25T03:58:55.085Z,20.23
2019-05-25T04:00:48.016Z,20.14
2019-05-25T04:01:48.074Z,20.14
2019-05-25T04:03:41.084Z,20.81
2019-05-25T04:04:41.151Z,21.86
2019-05-25T04:06:34.119Z,22.53
2019-05-25T04:07:34.256Z,23.67
2019-05-25T04:09:27.164Z,24.34
2019-05-25T04:10:27.266Z,24.05
2019-05-25T04:12:20.192Z,24.15
2019-05-25T04:13:20.252Z,25.12
2019-05-25T04:15:13.265Z,25.88
2019-05-25T04:16:13.300Z,25.98
2019-05-25T04:18:06.308Z,25.02
2019-05-25T04:19:06.346Z,25.59
2019-05-25T04:20:59.330Z,26.07
2019-05-25T04:21:59.391Z,27.98
2019-05-25T04:23:52.394Z,28.75
2019-05-25T04:24:52.431Z,29.99
2019-05-25T04:26:45.434Z,28.84
2019-05-25T04:27:45.474Z,26.93
2019-05-25T04:29:38.455Z,26.93
2019-05-25T04:30:38.517Z,26.55
2019-05-25T04:32:31.517Z,27.41
2019-05-25T04:33:31.558Z,27.98
2019-05-25T04:35:24.568Z,28.75
2019-05-25T04:36:24.611Z,28.94
2019-05-25T04:38:17.593Z,29.99
2019-05-25T04:39:17.659Z,30.18
2019-05-25T04:41:10.652Z,32.95
2019-05-25T04:42:10.703Z,29.32
2019-05-25T04:44:03.701Z,30.37
2019-05-25T04:45:03.772Z,29.99
2019-05-25T04:46:56.791Z,31.99
2019-05-25T04:47:56.845Z,31.42
2019-05-25T04:49:49.785Z,31.80
2019-05-25T04:50:49.854Z,31.80
2019-05-25T04:52:42.875Z,36.98
2019-05-25T04:53:42.898Z,37.74
2019-05-25T04:55:35.878Z,39.94
2019-05-25T04:56:39.593Z,40.80
2019-05-25T04:58:28.955Z,37.26
2019-05-25T04:59:28.975Z,36.41
2019-05-25T05:01:22.751Z,39.65
2019-05-25T05:02:22.022Z,40.99
2019-05-25T05:04:15.075Z,43.19
2019-05-25T05:05:15.077Z,39.94
2019-05-25T05:07:08.084Z,43.00
2019-05-25T05:08:08.134Z,42.14
2019-05-25T05:10:03.060Z,38.89
2019-05-25T05:11:01.158Z,39.75
2019-05-25T05:12:54.159Z,41.38
2019-05-25T05:13:54.198Z,41.20
2019-05-25T05:15:47.181Z,39.96
2019-05-25T05:16:47.245Z,39.67
2019-05-25T05:18:40.250Z,41.58
2019-05-25T05:19:40.290Z,43.59
2019-05-25T05:21:33.281Z,47.13
2019-05-25T05:22:33.340Z,46.17
2019-05-25T05:24:26.341Z,46.27
2019-05-25T05:25:26.384Z,41.97
2019-05-25T05:27:19.370Z,44.93
2019-05-25T05:28:19.428Z,44.26
2019-05-25T05:30:12.438Z,42.07
2019-05-25T05:31:23.270Z,43.30
2019-05-25T05:33:05.476Z,42.64
2019-05-25T05:34:05.528Z,43.19
2019-05-25T05:35:58.534Z,44.36
2019-05-25T05:36:58.574Z,41.87
2019-05-25T05:38:51.580Z,41.97
2019-05-25T05:39:51.622Z,43.21
2019-05-25T05:41:44.610Z,44.84
2019-05-25T05:42:44.667Z,43.40
2019-05-25T05:44:38.193Z,42.83
2019-05-25T05:45:38.223Z,41.97
2019-05-25T05:47:31.209Z,40.15
2019-05-25T05:48:31.265Z,39.65
2019-05-25T05:50:24.267Z,39.65
2019-05-25T05:51:24.319Z,39.75
2019-05-25T05:53:17.337Z,38.32
2019-05-25T05:54:17.354Z,37.46
2019-05-25T05:56:10.340Z,38.22
2019-05-25T05:57:12.578Z,37.46
2019-05-25T05:59:03.411Z,37.85
2019-05-25T06:00:03.490Z,41.47
2019-05-25T06:01:56.422Z,37.48
2019-05-25T06:02:56.486Z,37.57
2019-05-25T06:04:49.487Z,39.29
2019-05-25T06:05:49.708Z,41.30
2019-05-25T06:07:42.519Z,51.05
2019-05-25T06:08:42.570Z,53.34
2019-05-25T06:10:35.608Z,51.53
2019-05-25T06:11:35.653Z,49.23
2019-05-25T06:13:28.639Z,51.72
2019-05-25T06:14:28.693Z,57.17
2019-05-25T06:16:21.697Z,57.84
2019-05-25T06:17:21.744Z,57.97
2019-05-25T06:19:14.743Z,62.74
2019-05-25T06:20:14.786Z,62.65
2019-05-25T06:22:07.774Z,65.23
2019-05-25T06:23:12.148Z,66.38
2019-05-25T06:25:00.837Z,67.94
2019-05-25T06:26:00.881Z,69.48
2019-05-25T06:27:53.864Z,71.48
2019-05-25T06:28:53.922Z,73.21
2019-05-25T06:30:46.930Z,75.64
2019-05-25T06:31:46.975Z,80.24
2019-05-25T06:33:39.959Z,79.47
2019-05-25T06:34:40.025Z,80.85
2019-05-25T06:36:33.025Z,84.35
2019-05-25T06:37:33.068Z,84.35
2019-05-25T06:39:26.068Z,83.97
2019-05-25T06:40:26.110Z,80.94
2019-05-25T06:42:19.112Z,86.21
2019-05-25T06:43:19.156Z,86.65
2019-05-25T06:45:12.650Z,85.93
2019-05-25T06:46:12.713Z,86.41
2019-05-25T06:48:05.721Z,87.37
2019-05-25T06:49:05.783Z,87.65
2019-05-25T06:50:58.762Z,87.27
2019-05-25T06:51:58.853Z,88.42
2019-05-25T06:53:51.891Z,88.70
2019-05-25T06:54:51.906Z,89.66
2019-05-25T06:56:44.877Z,89.18
2019-05-25T06:57:45.073Z,89.18
2019-05-25T06:59:37.942Z,90.58
2019-05-25T07:00:38.052Z,91.34
2019-05-25T07:02:31.041Z,90.77
2019-05-25T07:03:31.066Z,90.44
2019-05-25T07:05:24.234Z,90.53
2019-05-25T07:06:24.139Z,90.67
2019-05-25T07:08:17.125Z,90.96
2019-05-25T07:09:17.243Z,90.96
2019-05-25T07:11:10.213Z,90.19
2019-05-25T07:12:10.260Z,89.90
2019-05-25T07:14:03.258Z,89.66
2019-05-25T07:15:03.571Z,89.09
2019-05-25T07:17:05.370Z,83.61
2019-05-25T07:17:57.527Z,84.48
2019-05-25T07:19:49.351Z,81.74
2019-05-25T07:20:49.392Z,80.97
2019-05-25T07:22:42.380Z,81.01
2019-05-25T07:23:42.443Z,78.23
2019-05-25T07:25:35.450Z,76.79
2019-05-25T07:26:35.512Z,75.82
2019-05-25T07:28:28.483Z,74.71
2019-05-25T07:29:28.549Z,74.33
2019-05-25T07:31:21.554Z,73.60
2019-05-25T07:32:21.613Z,74.37
2019-05-25T07:34:14.592Z,72.38
2019-05-25T07:35:14.657Z,67.42
2019-05-25T07:37:07.657Z,66.46
2019-05-25T07:38:07.722Z,66.97
2019-05-25T07:40:00.727Z,64.47
2019-05-25T07:41:00.765Z,64.56
2019-05-25T07:42:53.764Z,62.25
2019-05-25T07:43:53.821Z,56.73
2019-05-25T07:45:46.841Z,53.47
2019-05-25T07:46:46.877Z,51.66
2019-05-25T07:48:39.902Z,52.55
2019-05-25T07:49:39.935Z,53.97
2019-05-25T07:51:32.945Z,57.46
2019-05-25T07:52:33.017Z,58.04
2019-05-25T07:54:25.996Z,58.20
2019-05-25T07:55:26.065Z,59.27
2019-05-25T07:57:19.083Z,59.48
2019-05-25T07:58:19.133Z,57.81
2019-05-25T08:00:12.144Z,56.26
2019-05-25T08:01:12.195Z,56.01
2019-05-25T08:03:05.191Z,58.78
2019-05-25T08:04:05.256Z,59.14
2019-05-25T08:05:58.274Z,59.69
2019-05-25T08:06:58.322Z,60.71
2019-05-25T08:08:51.346Z,52.03
2019-05-25T08:09:51.397Z,47.38
2019-05-25T08:11:44.410Z,43.09
2019-05-25T08:12:44.460Z,42.47
2019-05-25T08:14:37.466Z,41.05
2019-05-25T08:15:37.535Z,42.79
2019-05-25T08:17:31.076Z,41.46
2019-05-25T08:18:31.118Z,40.31
2019-05-25T08:20:24.155Z,42.30
2019-05-25T08:21:24.200Z,45.15
2019-05-25T08:23:17.234Z,49.70
2019-05-25T08:24:17.278Z,52.17
2019-05-25T08:26:10.289Z,52.50
2019-05-25T08:27:10.362Z,54.33
2019-05-25T08:29:03.400Z,54.96
2019-05-25T08:30:03.441Z,56.01
2019-05-25T08:31:56.443Z,57.82
2019-05-25T08:32:56.515Z,58.72
2019-05-25T08:34:49.541Z,58.95
2019-05-25T08:35:49.583Z,60.36
2019-05-25T08:37:42.616Z,59.88
2019-05-25T08:38:42.658Z,59.72
2019-05-25T08:40:35.661Z,58.32
2019-05-25T08:41:35.726Z,55.02
2019-05-25T08:43:28.758Z,53.52
2019-05-25T08:44:28.799Z,53.78
2019-05-25T08:46:21.802Z,54.82
2019-05-25T08:47:21.867Z,55.76
2019-05-25T08:49:14.881Z,57.62
2019-05-25T08:50:14.931Z,59.52
2019-05-25T08:52:07.931Z,61.90
2019-05-25T08:53:07.998Z,62.09
2019-05-25T08:55:01.014Z,61.10
2019-05-25T08:56:01.066Z,60.84
2019-05-25T08:57:54.060Z,61.04
2019-05-25T08:58:55.625Z,60.46
2019-05-25T09:00:47.151Z,60.75
2019-05-25T09:01:47.203Z,61.22
2019-05-25T09:03:40.208Z,60.77
2019-05-25T09:04:40.302Z,59.62
2019-05-25T09:06:33.276Z,59.91
2019-05-25T09:07:33.326Z,59.59
2019-05-25T09:09:26.323Z,60.91
2019-05-25T09:10:26.390Z,62.06
2019-05-25T09:12:19.403Z,62.26
2019-05-25T09:13:19.458Z,62.83
2019-05-25T09:15:12.468Z,60.90
2019-05-25T09:16:12.513Z,58.65
2019-05-25T09:18:06.192Z,55.62
2019-05-25T09:19:06.098Z,54.36
2019-05-25T09:20:59.094Z,53.35
2019-05-25T09:22:03.267Z,51.37
2019-05-25T09:23:52.186Z,49.99
2019-05-25T09:24:52.230Z,47.96
2019-05-25T09:26:45.310Z,50.45
2019-05-25T09:27:45.309Z,49.34
2019-05-25T09:29:38.323Z,51.13
2019-05-25T09:30:38.380Z,51.39
2019-05-25T09:32:31.420Z,53.49
2019-05-25T09:33:31.446Z,53.66
2019-05-25T09:35:24.466Z,55.18
2019-05-25T09:36:24.516Z,54.86
2019-05-25T09:38:17.533Z,55.44
2019-05-25T09:39:17.581Z,56.11
2019-05-25T09:41:10.641Z,56.24
2019-05-25T09:42:10.654Z,55.94
2019-05-25T09:44:03.654Z,57.37
2019-05-25T09:45:03.723Z,57.37
2019-05-25T09:46:56.785Z,57.92
2019-05-25T09:47:56.833Z,58.69
2019-05-25T09:49:49.837Z,60.10
2019-05-25T09:50:49.903Z,60.77
2019-05-25T09:52:42.921Z,60.20
2019-05-25T09:53:42.969Z,59.55
2019-05-25T09:55:35.965Z,60.49
2019-05-25T09:56:36.029Z,61.83
2019-05-25T09:58:29.047Z,63.06
2019-05-25T09:59:29.095Z,61.61
2019-05-25T10:01:22.112Z,61.13
2019-05-25T10:02:22.156Z,60.97
2019-05-25T10:04:15.168Z,58.97
2019-05-25T10:05:15.217Z,58.97
2019-05-25T10:07:08.236Z,58.59
2019-05-25T10:08:08.284Z,58.88
2019-05-25T10:10:01.317Z,59.27
2019-05-25T10:11:01.347Z,59.84
2019-05-25T10:12:54.355Z,59.27
2019-05-25T10:13:54.405Z,59.94
2019-05-25T10:15:47.398Z,59.81
2019-05-25T10:16:47.463Z,59.23
2019-05-25T10:18:40.476Z,59.45
2019-05-25T10:19:40.528Z,59.55
2019-05-25T10:21:33.524Z,59.55
2019-05-25T10:22:33.587Z,59.94
2019-05-25T10:24:26.600Z,60.03
2019-05-25T10:25:26.648Z,60.90
2019-05-25T10:27:19.669Z,59.84
2019-05-25T10:28:19.716Z,59.72
2019-05-25T10:30:12.725Z,60.30
2019-05-25T10:31:12.778Z,59.43
2019-05-25T10:33:05.774Z,60.94
2019-05-25T10:34:05.842Z,60.20
2019-05-25T10:35:58.860Z,60.77
2019-05-25T10:36:58.898Z,60.77
2019-05-25T10:38:51.929Z,59.36
2019-05-25T10:39:51.970Z,58.69
2019-05-25T10:41:44.984Z,58.01
2019-05-25T10:42:45.031Z,58.59
2019-05-25T10:44:38.075Z,60.00
2019-05-25T10:45:38.103Z,60.20
2019-05-25T10:47:31.127Z,59.91
2019-05-25T10:48:31.182Z,60.00
2019-05-25T10:50:24.187Z,60.77
2019-05-25T10:51:24.229Z,60.77
2019-05-25T10:53:17.280Z,60.94
2019-05-25T10:54:17.310Z,61.80
2019-05-25T10:56:10.449Z,62.19
2019-05-25T10:57:13.257Z,62.67
2019-05-25T10:59:03.617Z,63.44
2019-05-25T11:00:03.474Z,61.80
2019-05-25T11:01:56.489Z,61.45
2019-05-25T11:02:56.528Z,60.97
2019-05-25T11:04:49.543Z,60.00
2019-05-25T11:05:49.589Z,60.77
2019-05-25T11:07:42.605Z,61.74
2019-05-25T11:08:42.650Z,61.25
2019-05-25T11:10:35.642Z,61.55
2019-05-25T11:11:35.714Z,61.25
2019-05-25T11:13:28.715Z,61.25
2019-05-25T11:14:28.771Z,61.25
2019-05-25T11:16:21.807Z,60.42
2019-05-25T11:17:21.833Z,60.87
2019-05-25T11:19:14.850Z,61.61
2019-05-25T11:20:14.894Z,62.48
2019-05-25T11:22:07.909Z,63.34
2019-05-25T11:23:07.968Z,63.54
2019-05-25T11:25:00.976Z,63.64
2019-05-25T11:26:01.021Z,62.67
2019-05-25T11:27:54.038Z,63.22
2019-05-25T11:28:54.081Z,64.18
2019-05-25T11:30:47.096Z,64.79
2019-05-25T11:31:55.967Z,64.25
2019-05-25T11:33:40.191Z,63.67
2019-05-25T11:34:40.207Z,61.83
2019-05-25T11:36:33.204Z,60.97
2019-05-25T11:37:33.264Z,61.48
2019-05-25T11:39:26.274Z,60.80
2019-05-25T11:40:26.326Z,61.48
2019-05-25T11:42:19.325Z,61.35
2019-05-25T11:43:19.390Z,61.25
2019-05-25T11:45:12.401Z,61.35
2019-05-25T11:46:12.454Z,62.03
2019-05-25T11:48:05.453Z,62.77
2019-05-25T11:49:21.423Z,63.38
2019-05-25T11:50:58.520Z,62.90
2019-05-25T11:51:58.573Z,62.60
2019-05-25T11:53:51.585Z,61.19
2019-05-25T11:54:51.633Z,61.38
2019-05-25T11:56:44.627Z,61.29
2019-05-25T11:57:44.691Z,62.03
2019-05-25T11:59:37.700Z,61.96
2019-05-25T12:00:37.756Z,60.90
2019-05-25T12:02:30.749Z,60.13
2019-05-25T12:03:30.813Z,59.84
2019-05-25T12:05:23.830Z,59.36
2019-05-25T12:06:23.877Z,59.36
2019-05-25T12:08:16.886Z,59.75
2019-05-25T12:09:16.935Z,62.06
2019-05-25T12:11:09.930Z,60.16
2019-05-25T12:12:09.996Z,60.13
2019-05-25T12:14:03.008Z,59.75
2019-05-25T12:15:03.058Z,59.87
2019-05-25T12:16:56.119Z,61.13
2019-05-25T12:17:56.139Z,60.93
2019-05-25T12:19:49.140Z,59.65
2019-05-25T12:20:49.190Z,60.61
2019-05-25T12:22:42.206Z,60.87
2019-05-25T12:23:42.245Z,60.97
2019-05-25T12:25:35.263Z,62.74
2019-05-25T12:26:35.313Z,64.89
2019-05-25T12:28:28.306Z,64.50
2019-05-25T12:29:28.373Z,63.82
2019-05-25T12:31:21.389Z,63.34
2019-05-25T12:32:21.434Z,63.25
2019-05-25T12:34:14.447Z,63.64
2019-05-25T12:35:14.496Z,63.51
2019-05-25T12:37:07.505Z,63.64
2019-05-25T12:38:07.555Z,62.67
2019-05-25T12:40:00.573Z,63.92
2019-05-25T12:41:00.620Z,63.44
2019-05-25T12:42:53.619Z,62.90
2019-05-25T12:43:53.671Z,61.93
2019-05-25T12:45:46.690Z,63.38
2019-05-25T12:46:46.735Z,62.32
2019-05-25T12:48:39.734Z,62.00
2019-05-25T12:49:50.227Z,62.67
2019-05-25T12:51:32.812Z,62.29
2019-05-25T12:52:32.852Z,62.77
2019-05-25T12:54:25.852Z,63.79
2019-05-25T12:55:25.911Z,64.08
2019-05-25T12:57:18.923Z,64.86
2019-05-25T12:58:18.976Z,64.47
2019-05-25T13:00:15.987Z,64.59
2019-05-25T13:01:12.024Z,63.64
2019-05-25T13:03:05.035Z,63.95
2019-05-25T13:04:05.081Z,62.12
2019-05-25T13:05:58.071Z,64.76
2019-05-25T13:06:58.140Z,63.98
2019-05-25T13:08:51.175Z,63.02
2019-05-25T13:09:51.195Z,63.50
2019-05-25T13:11:44.200Z,62.06
2019-05-25T13:12:44.267Z,61.10
2019-05-25T13:14:37.275Z,59.45
2019-05-25T13:15:37.319Z,60.03
2019-05-25T13:17:30.822Z,59.27
2019-05-25T13:18:30.883Z,59.68
2019-05-25T13:20:23.893Z,60.03
2019-05-25T13:21:23.943Z,60.55
2019-05-25T13:23:17.168Z,61.41
2019-05-25T13:24:16.998Z,61.13
2019-05-25T13:26:10.012Z,59.58
2019-05-25T13:27:10.056Z,59.30
2019-05-25T13:29:03.049Z,59.58
2019-05-25T13:30:03.613Z,60.93
2019-05-25T13:31:56.121Z,61.16
2019-05-25T13:32:56.179Z,59.52
2019-05-25T13:34:49.182Z,58.94
2019-05-25T13:35:49.230Z,62.12
2019-05-25T13:37:42.251Z,59.68
2019-05-25T13:38:42.293Z,60.55
2019-05-25T13:40:35.287Z,59.87
2019-05-25T13:41:35.350Z,59.58
2019-05-25T13:43:28.365Z,60.35
2019-05-25T13:44:28.409Z,60.83
2019-05-25T13:46:21.402Z,61.22
2019-05-25T13:47:21.471Z,59.78
2019-05-25T13:49:14.482Z,60.35
2019-05-25T13:50:14.529Z,59.78
2019-05-25T13:52:07.525Z,59.80
2019-05-25T13:53:07.592Z,58.04
2019-05-25T13:55:00.598Z,57.01
2019-05-25T13:56:00.647Z,56.62
2019-05-25T13:57:53.660Z,56.88
2019-05-25T13:58:53.715Z,57.85
2019-05-25T14:00:46.701Z,58.04
2019-05-25T14:01:46.767Z,57.75
2019-05-25T14:03:39.811Z,58.23
2019-05-25T14:04:39.856Z,59.55
2019-05-25T14:06:32.866Z,58.97
2019-05-25T14:07:32.937Z,59.48
2019-05-25T14:09:25.933Z,59.39
2019-05-25T14:10:25.977Z,59.94
2019-05-25T14:12:18.980Z,59.45
2019-05-25T14:13:19.037Z,58.97
2019-05-25T14:15:12.226Z,60.49
2019-05-25T14:16:12.101Z,60.00
2019-05-25T14:18:05.642Z,61.74
2019-05-25T14:19:05.668Z,62.15
2019-05-25T14:20:58.664Z,62.54
2019-05-25T14:21:58.726Z,62.06
2019-05-25T14:23:51.738Z,61.48
2019-05-25T14:24:51.782Z,60.42
2019-05-25T14:26:44.779Z,59.84
2019-05-25T14:27:44.846Z,59.65
2019-05-25T14:29:37.874Z,59.72
2019-05-25T14:30:37.917Z,60.77
2019-05-25T14:32:30.945Z,61.35
2019-05-25T14:33:30.985Z,61.25
2019-05-25T14:35:23.979Z,61.07
2019-05-25T14:36:24.039Z,60.77
2019-05-25T14:38:17.061Z,59.84
2019-05-25T14:39:17.103Z,59.75
2019-05-25T14:41:10.174Z,57.82
2019-05-25T14:42:10.161Z,57.72
2019-05-25T14:44:03.171Z,57.92
2019-05-25T14:45:03.222Z,58.88
2019-05-25T14:46:56.212Z,59.48
2019-05-25T14:47:56.276Z,57.46
2019-05-25T14:49:49.288Z,58.42
2019-05-25T14:50:49.334Z,58.04
2019-05-25T14:52:43.378Z,58.52
2019-05-25T14:53:42.396Z,58.72
2019-05-25T14:55:35.385Z,58.30
2019-05-25T14:56:35.457Z,57.82
2019-05-25T14:58:28.461Z,59.52
2019-05-25T14:59:28.506Z,60.61
2019-05-25T15:01:21.500Z,59.36
2019-05-25T15:02:21.563Z,58.49
2019-05-25T15:04:14.573Z,58.97
2019-05-25T15:05:14.619Z,59.55
2019-05-25T15:07:07.628Z,59.55
2019-05-25T15:08:07.686Z,59.27
2019-05-25T15:10:01.206Z,59.84
2019-05-25T15:11:00.744Z,59.94
2019-05-25T15:12:53.756Z,60.03
2019-05-25T15:13:53.803Z,59.45
2019-05-25T15:15:46.794Z,58.72
2019-05-25T15:16:46.919Z,59.07
2019-05-25T15:18:40.382Z,57.82
2019-05-25T15:19:40.425Z,57.24
2019-05-25T15:21:33.500Z,56.85
2019-05-25T15:22:33.481Z,56.85
2019-05-25T15:24:26.491Z,57.24
2019-05-25T15:25:26.533Z,56.57
2019-05-25T15:27:19.545Z,57.12
2019-05-25T15:28:19.596Z,57.79
2019-05-25T15:30:12.585Z,59.52
2019-05-25T15:31:12.654Z,59.33
2019-05-25T15:33:05.658Z,58.65
2019-05-25T15:34:05.712Z,58.75
2019-05-25T15:35:58.715Z,58.65
2019-05-25T15:36:58.769Z,58.47
2019-05-25T15:38:51.790Z,57.76
2019-05-25T15:39:51.826Z,58.72
2019-05-25T15:41:44.823Z,58.65
2019-05-25T15:42:44.881Z,58.34
2019-05-25T15:44:37.893Z,57.50
2019-05-25T15:45:37.942Z,58.75
2019-05-25T15:47:30.955Z,57.67
2019-05-25T15:48:30.997Z,58.15
2019-05-25T15:50:24.014Z,59.01
2019-05-25T15:51:24.055Z,58.92
2019-05-25T15:53:17.040Z,59.69
2019-05-25T15:54:17.106Z,59.01
2019-05-25T15:56:10.200Z,59.47
2019-05-25T15:57:10.167Z,60.04
2019-05-25T15:59:03.177Z,60.91
2019-05-25T16:00:03.225Z,60.62
2019-05-25T16:01:56.240Z,61.10
2019-05-25T16:02:56.272Z,61.77
2019-05-25T16:04:49.272Z,60.62
2019-05-25T16:05:49.340Z,61.39
2019-05-25T16:07:42.353Z,60.69
2019-05-25T16:08:42.388Z,61.00
2019-05-25T16:10:35.371Z,60.62
2019-05-25T16:11:35.454Z,61.10
2019-05-25T16:13:28.450Z,60.91
2019-05-25T16:14:28.498Z,62.64
2019-05-25T16:16:29.758Z,60.72
2019-05-25T16:17:21.550Z,61.00
2019-05-25T16:19:14.557Z,61.10
2019-05-25T16:20:14.602Z,60.62
2019-05-25T16:22:07.593Z,60.81
2019-05-25T16:23:07.660Z,61.39
2019-05-25T16:25:00.675Z,60.14
2019-05-25T16:26:00.729Z,60.52
2019-05-25T16:27:53.713Z,61.19
2019-05-25T16:28:53.771Z,61.19
2019-05-25T16:30:46.783Z,61.19
2019-05-25T16:31:46.833Z,60.81
2019-05-25T16:33:39.860Z,61.58
2019-05-25T16:34:39.924Z,62.16
2019-05-25T16:36:32.950Z,62.26
2019-05-25T16:37:33.020Z,61.87
2019-05-25T16:39:25.987Z,61.87
2019-05-25T16:40:26.039Z,61.49
2019-05-25T16:42:19.050Z,61.87
2019-05-25T16:43:19.093Z,62.35
2019-05-25T16:45:12.089Z,61.68
2019-05-25T16:46:12.148Z,61.77
2019-05-25T16:48:05.163Z,62.32
2019-05-25T16:49:05.208Z,62.71
2019-05-25T16:50:58.221Z,63.76
2019-05-25T16:51:58.277Z,64.43
2019-05-25T16:53:51.262Z,64.98
2019-05-25T16:54:51.324Z,65.17
2019-05-25T16:56:44.339Z,64.79
2019-05-25T16:57:44.373Z,65.17
2019-05-25T16:59:37.372Z,65.08
2019-05-25T17:00:37.427Z,65.08
2019-05-25T17:02:30.439Z,64.02
2019-05-25T17:03:30.481Z,64.82
2019-05-25T17:05:23.492Z,64.73
2019-05-25T17:06:23.535Z,64.43
2019-05-25T17:08:16.529Z,64.34
2019-05-25T17:09:16.595Z,63.86
2019-05-25T17:11:10.181Z,64.15
2019-05-25T17:12:10.154Z,64.34
2019-05-25T17:14:03.147Z,63.86
2019-05-25T17:15:03.240Z,64.15
2019-05-25T17:16:56.237Z,62.51
2019-05-25T17:17:56.568Z,62.71
2019-05-25T17:19:49.255Z,63.67
2019-05-25T17:20:49.326Z,63.38
2019-05-25T17:22:42.841Z,63.38
2019-05-25T17:23:42.882Z,64.63
2019-05-25T17:25:35.897Z,64.34
2019-05-25T17:26:35.944Z,64.25
2019-05-25T17:28:28.933Z,64.53
2019-05-25T17:29:29.195Z,64.69
2019-05-25T17:31:22.458Z,63.76
2019-05-25T17:32:22.466Z,63.45
2019-05-25T17:34:15.450Z,64.69
2019-05-25T17:35:15.521Z,64.22
2019-05-25T17:37:08.533Z,65.27
2019-05-25T17:38:08.593Z,65.84
2019-05-25T17:40:02.096Z,66.04
2019-05-25T17:41:01.636Z,66.33
2019-05-25T17:42:54.645Z,66.61
2019-05-25T17:43:54.742Z,67.29
2019-05-25T17:45:47.826Z,67.96
2019-05-25T17:46:47.807Z,67.83
2019-05-25T17:48:40.803Z,67.83
2019-05-25T17:49:40.869Z,68.12
2019-05-25T17:51:33.885Z,68.83
2019-05-25T17:52:33.924Z,68.83
2019-05-25T17:55:06.331Z,68.70
2019-05-25T17:56:06.356Z,69.12
2019-05-25T17:57:59.355Z,69.31
2019-05-25T17:58:59.406Z,69.46
2019-05-25T18:00:52.424Z,69.08
2019-05-25T18:01:52.465Z,69.56
2019-05-25T18:04:04.355Z,69.75
2019-05-25T18:04:45.603Z,70.33
2019-05-25T18:06:38.571Z,70.14
2019-05-25T18:07:38.587Z,70.14
2019-05-25T18:09:31.603Z,70.14
2019-05-25T18:10:31.649Z,70.43
2019-05-25T18:12:24.691Z,70.43
2019-05-25T18:13:28.532Z,70.43
2019-05-25T18:15:17.727Z,71.77
2019-05-25T18:16:17.752Z,71.77
2019-05-25T18:18:10.820Z,72.34
2019-05-25T18:19:10.826Z,72.54
2019-05-25T18:21:03.827Z,73.21
2019-05-25T18:22:03.866Z,74.04
2019-05-25T18:23:56.875Z,74.43
2019-05-25T18:24:56.949Z,75.67
2019-05-25T18:26:49.929Z,76.15
2019-05-25T18:27:49.979Z,76.34
2019-05-25T18:29:43.034Z,75.77
2019-05-25T18:30:43.041Z,75.67
2019-05-25T18:32:37.072Z,75.87
2019-05-25T18:33:37.131Z,76.25
2019-05-25T18:35:30.179Z,77.50